createdAt,value
2022-09-11T00:00:53.899Z,55.58
2022-09-11T00:03:21.982Z,55.57
2022-09-11T00:05:49.806Z,55.55
2022-09-11T00:08:19.793Z,55.50
2022-09-11T00:10:48.326Z,55.50
2022-09-11T00:13:19.568Z,55.46
2022-09-11T00:15:47.358Z,55.60
2022-09-11T00:18:17.736Z,55.42
2022-09-11T00:20:49.551Z,55.49
2022-09-11T00:23:17.735Z,55.51
2022-09-11T00:25:46.280Z,55.56
2022-09-11T00:28:15.942Z,55.48
2022-09-11T00:30:44.508Z,55.77
2022-09-11T00:33:12.469Z,55.44
2022-09-11T00:35:41.545Z,55.57
2022-09-11T00:38:12.106Z,55.64
2022-09-11T00:40:46.325Z,55.62
2022-09-11T00:43:15.028Z,55.66
2022-09-11T00:45:42.736Z,55.50
2022-09-11T00:48:10.419Z,55.59
2022-09-11T00:50:38.098Z,55.56
2022-09-11T00:53:09.923Z,55.46
2022-09-11T00:55:37.923Z,55.82
2022-09-11T00:58:07.176Z,55.43
2022-09-11T01:00:35.356Z,55.56
2022-09-11T01:03:03.180Z,55.57
2022-09-11T01:05:34.631Z,55.53
2022-09-11T01:08:03.764Z,55.58
2022-09-11T01:10:37.402Z,55.82
2022-09-11T01:13:09.261Z,55.40
2022-09-11T01:15:39.521Z,55.44
2022-09-11T01:18:10.089Z,55.68
2022-09-11T01:20:49.012Z,55.40
2022-09-11T01:23:37.193Z,55.63
2022-09-11T01:26:18.275Z,55.59
2022-09-11T01:28:49.807Z,55.44
2022-09-11T01:31:18.616Z,55.41
2022-09-11T01:33:48.490Z,55.47
2022-09-11T01:36:18.944Z,55.64
2022-09-11T01:38:47.870Z,55.62
2022-09-11T01:41:17.165Z,55.34
2022-09-11T01:43:51.790Z,55.28
2022-09-11T01:46:23.082Z,55.28
2022-09-11T01:48:53.851Z,55.44
2022-09-11T01:51:23.383Z,55.32
2022-09-11T01:53:51.663Z,55.51
2022-09-11T01:56:21.280Z,55.41
2022-09-11T01:58:50.496Z,55.23
2022-09-11T02:01:20.092Z,55.35
2022-09-11T02:03:48.871Z,55.40
2022-09-11T02:06:18.939Z,55.30
2022-09-11T02:08:49.106Z,55.19
2022-09-11T02:11:16.693Z,55.30
2022-09-11T02:13:48.070Z,55.49
2022-09-11T02:16:19.919Z,55.22
2022-09-11T02:18:53.923Z,55.29
2022-09-11T02:21:21.656Z,55.45
2022-09-11T02:23:49.692Z,55.27
2022-09-11T02:26:18.276Z,55.30
2022-09-11T02:28:45.948Z,55.43
2022-09-11T02:31:13.724Z,55.50
2022-09-11T02:33:43.543Z,55.39
2022-09-11T02:36:22.317Z,55.31
2022-09-11T02:38:55.326Z,55.30
2022-09-11T02:41:25.107Z,55.40
2022-09-11T02:43:58.919Z,55.62
2022-09-11T02:46:48.903Z,55.33
2022-09-11T02:49:21.661Z,55.34
2022-09-11T02:51:51.926Z,55.41
2022-09-11T02:54:22.838Z,55.38
2022-09-11T02:56:53.386Z,55.40
2022-09-11T02:59:24.749Z,55.43
2022-09-11T03:01:53.153Z,55.54
2022-09-11T03:04:23.395Z,55.45
2022-09-11T03:06:51.174Z,55.49
2022-09-11T03:09:18.891Z,55.55
2022-09-11T03:11:46.671Z,55.42
2022-09-11T03:14:14.377Z,55.66
2022-09-11T03:16:42.081Z,55.32
2022-09-11T03:19:09.958Z,55.32
2022-09-11T03:21:38.962Z,55.51
2022-09-11T03:24:09.814Z,55.48
2022-09-11T03:26:37.555Z,55.34
2022-09-11T03:29:05.305Z,55.34
2022-09-11T03:31:36.245Z,55.20
2022-09-11T03:34:06.378Z,55.45
2022-09-11T03:36:34.901Z,55.42
2022-09-11T03:39:04.215Z,55.58
2022-09-11T03:41:31.887Z,55.35
2022-09-11T03:43:59.742Z,55.43
2022-09-11T03:46:27.914Z,55.46
2022-09-11T03:48:55.583Z,55.49
2022-09-11T03:51:23.273Z,55.49
2022-09-11T03:53:50.921Z,55.14
2022-09-11T03:56:21.147Z,55.47
2022-09-11T03:58:49.136Z,55.42
2022-09-11T04:01:19.139Z,55.31
2022-09-11T04:03:46.716Z,55.46
2022-09-11T04:06:14.407Z,55.51
2022-09-11T04:08:42.088Z,55.32
2022-09-11T04:11:11.623Z,55.26
2022-09-11T04:13:42.134Z,55.31
2022-09-11T04:16:12.892Z,55.43
2022-09-11T04:18:41.094Z,55.19
2022-09-11T04:21:10.155Z,55.35
2022-09-11T04:23:37.967Z,55.50
2022-09-11T04:26:07.208Z,55.36
2022-09-11T04:28:35.266Z,55.44
2022-09-11T04:31:04.691Z,55.44
2022-09-11T04:33:32.344Z,55.27
2022-09-11T04:36:00.699Z,55.44
2022-09-11T04:38:28.691Z,55.43
2022-09-11T04:40:56.447Z,55.39
2022-09-11T04:43:24.091Z,55.40
2022-09-11T04:45:51.862Z,55.25
2022-09-11T04:48:21.003Z,55.44
2022-09-11T04:50:49.239Z,55.55
2022-09-11T04:53:16.915Z,55.22
2022-09-11T04:55:46.044Z,55.47
2022-09-11T04:58:13.964Z,55.43
2022-09-11T05:00:41.660Z,55.42
2022-09-11T05:03:09.324Z,55.40
2022-09-11T05:05:38.623Z,55.49
2022-09-11T05:08:06.415Z,55.31
2022-09-11T05:10:37.978Z,55.50
2022-09-11T05:13:05.635Z,55.41
2022-09-11T05:15:33.373Z,55.47
2022-09-11T05:18:01.023Z,55.35
2022-09-11T05:20:28.715Z,55.52
2022-09-11T05:22:58.490Z,55.79
2022-09-11T05:25:26.310Z,55.55
2022-09-11T05:27:54.092Z,55.38
2022-09-11T05:30:21.798Z,55.44
2022-09-11T05:32:54.801Z,55.39
2022-09-11T05:35:22.609Z,55.39
2022-09-11T05:37:50.286Z,55.36
2022-09-11T05:40:19.326Z,55.53
2022-09-11T05:42:47.000Z,55.61
2022-09-11T05:45:14.755Z,55.64
2022-09-11T05:47:42.502Z,55.35
2022-09-11T05:50:10.494Z,55.53
2022-09-11T05:52:38.251Z,55.62
2022-09-11T05:55:06.627Z,55.44
2022-09-11T05:57:35.618Z,55.49
2022-09-11T06:00:04.087Z,55.53
2022-09-11T06:02:32.077Z,55.32
2022-09-11T06:04:59.820Z,55.32
2022-09-11T06:07:27.794Z,55.50
2022-09-11T06:09:57.822Z,55.46
2022-09-11T06:12:28.658Z,55.56
2022-09-11T06:14:57.696Z,55.57
2022-09-11T06:17:25.372Z,55.45
2022-09-11T06:19:53.066Z,55.39
2022-09-11T06:22:21.666Z,55.39
2022-09-11T06:24:49.538Z,55.54
2022-09-11T06:27:18.112Z,55.50
2022-09-11T06:29:45.938Z,55.51
2022-09-11T06:32:14.930Z,55.52
2022-09-11T06:34:42.619Z,55.73
2022-09-11T06:37:10.273Z,55.68
2022-09-11T06:39:38.002Z,55.59
2022-09-11T06:42:07.643Z,55.72
2022-09-11T06:44:35.388Z,55.65
2022-09-11T06:47:03.776Z,55.69
2022-09-11T06:49:33.143Z,55.66
2022-09-11T06:52:00.794Z,55.50
2022-09-11T06:54:28.463Z,55.84
2022-09-11T06:56:56.829Z,55.65
2022-09-11T06:59:24.649Z,55.54
2022-09-11T07:01:52.700Z,55.44
2022-09-11T07:04:20.496Z,55.54
2022-09-11T07:06:50.010Z,55.54
2022-09-11T07:09:17.706Z,55.65
2022-09-11T07:11:46.825Z,55.61
2022-09-11T07:14:14.619Z,55.45
2022-09-11T07:16:42.483Z,55.55
2022-09-11T07:19:10.592Z,55.51
2022-09-11T07:21:38.481Z,55.48
2022-09-11T07:24:07.817Z,55.55
2022-09-11T07:26:36.366Z,55.41
2022-09-11T07:29:04.256Z,55.63
2022-09-11T07:31:33.117Z,55.32
2022-09-11T07:34:00.955Z,55.38
2022-09-11T07:36:30.138Z,55.59
2022-09-11T07:38:58.536Z,55.70
2022-09-11T07:41:28.051Z,55.70
2022-09-11T07:43:56.176Z,55.36
2022-09-11T07:46:24.056Z,55.65
2022-09-11T07:48:51.804Z,55.53
2022-09-11T07:51:20.031Z,55.51
2022-09-11T07:53:48.604Z,55.58
2022-09-11T07:56:18.407Z,55.66
2022-09-11T07:58:48.000Z,55.50
2022-09-11T08:01:16.383Z,55.75
2022-09-11T08:03:44.273Z,55.74
2022-09-11T08:06:13.553Z,55.58
2022-09-11T08:08:41.213Z,55.66
2022-09-11T08:11:09.724Z,55.73
2022-09-11T08:13:37.642Z,55.81
2022-09-11T08:16:07.281Z,55.66
2022-09-11T08:18:35.603Z,55.78
2022-09-11T08:21:04.482Z,55.70
2022-09-11T08:23:33.040Z,55.87
2022-09-11T08:26:07.050Z,55.86
2022-09-11T08:28:34.821Z,55.91
2022-09-11T08:31:02.717Z,55.81
2022-09-11T08:33:31.774Z,56.07
2022-09-11T08:35:59.474Z,55.90
2022-09-11T08:38:27.167Z,55.90
2022-09-11T08:40:55.280Z,55.66
2022-09-11T08:43:24.383Z,55.66
2022-09-11T08:45:55.811Z,56.05
2022-09-11T08:48:28.240Z,55.69
2022-09-11T08:50:57.267Z,55.87
2022-09-11T08:53:25.686Z,55.74
2022-09-11T08:55:55.455Z,55.77
2022-09-11T08:58:27.021Z,55.88
2022-09-11T09:00:57.633Z,55.89
2022-09-11T09:04:04.631Z,55.86
2022-09-11T09:06:44.316Z,55.75
2022-09-11T09:09:14.177Z,55.75
2022-09-11T09:11:44.508Z,55.93
2022-09-11T09:14:32.615Z,55.84
2022-09-11T09:17:01.313Z,55.52
2022-09-11T09:19:30.728Z,55.61
2022-09-11T09:22:04.423Z,55.86
2022-09-11T09:24:34.268Z,55.96
2022-09-11T09:27:02.032Z,56.07
2022-09-11T09:29:36.963Z,56.14
2022-09-11T09:32:06.601Z,55.82
2022-09-11T09:34:35.518Z,55.76
2022-09-11T09:37:06.094Z,55.92
2022-09-11T09:39:33.785Z,55.93
2022-09-11T09:42:23.857Z,55.91
2022-09-11T09:45:02.122Z,56.07
2022-09-11T09:47:30.582Z,55.90
2022-09-11T09:49:58.513Z,56.10
2022-09-11T09:52:28.084Z,55.98
2022-09-11T09:55:00.130Z,55.86
2022-09-11T09:57:30.355Z,55.83
2022-09-11T10:00:01.558Z,55.58
2022-09-11T10:02:40.659Z,55.87
2022-09-11T10:05:17.241Z,55.80
2022-09-11T10:07:50.393Z,55.70
2022-09-11T10:10:26.662Z,55.94
2022-09-11T10:13:17.307Z,55.79
2022-09-11T10:15:43.303Z,56.01
2022-09-11T10:18:37.571Z,55.78
2022-09-11T10:21:22.545Z,55.75
2022-09-11T10:23:53.173Z,55.96
2022-09-11T10:26:23.367Z,55.75
2022-09-11T10:28:51.048Z,55.71
2022-09-11T10:31:18.810Z,55.78
2022-09-11T10:33:48.328Z,55.87
2022-09-11T10:36:17.267Z,55.72
2022-09-11T10:38:47.787Z,55.85
2022-09-11T10:41:19.587Z,55.84
2022-09-11T10:43:50.162Z,55.88
2022-09-11T10:46:40.722Z,55.58
2022-09-11T10:49:10.794Z,55.86
2022-09-11T10:51:39.120Z,55.52
2022-09-11T10:54:14.280Z,55.87
2022-09-11T10:56:50.162Z,55.62
2022-09-11T10:59:20.559Z,55.65
2022-09-11T11:01:48.362Z,55.63
2022-09-11T11:04:17.057Z,55.77
2022-09-11T11:06:51.976Z,55.71
2022-09-11T11:09:31.161Z,55.58
2022-09-11T11:12:14.174Z,55.80
2022-09-11T11:15:03.792Z,55.70
2022-09-11T11:17:36.006Z,55.84
2022-09-11T11:20:23.731Z,55.77
2022-09-11T11:23:00.971Z,55.79
2022-09-11T11:25:29.757Z,55.88
2022-09-11T11:28:11.750Z,55.59
2022-09-11T11:30:41.435Z,55.45
2022-09-11T11:33:36.158Z,55.76
2022-09-11T11:36:08.869Z,55.42
2022-09-11T11:38:40.516Z,55.57
2022-09-11T11:41:10.746Z,55.63
2022-09-11T11:43:40.997Z,55.45
2022-09-11T11:46:12.424Z,55.85
2022-09-11T11:48:42.129Z,55.59
2022-09-11T11:51:12.284Z,55.33
2022-09-11T11:53:41.674Z,55.59
2022-09-11T11:56:15.721Z,55.56
2022-09-11T11:58:48.359Z,55.81
2022-09-11T12:01:20.192Z,55.76
2022-09-11T12:03:50.440Z,56.08
2022-09-11T12:06:18.209Z,55.76
2022-09-11T12:08:46.117Z,55.76
2022-09-11T12:11:15.520Z,55.79
2022-09-11T12:13:44.134Z,55.75
2022-09-11T12:16:19.897Z,55.76
2022-09-11T12:19:05.615Z,55.96
2022-09-11T12:21:38.313Z,55.76
2022-09-11T12:24:21.144Z,55.94
2022-09-11T12:26:49.069Z,56.18
2022-09-11T12:29:49.545Z,55.88
2022-09-11T12:32:43.455Z,55.73
2022-09-11T12:35:22.502Z,55.80
2022-09-11T12:37:55.739Z,56.06
2022-09-11T12:40:33.285Z,55.67
2022-09-11T12:43:17.528Z,56.00
2022-09-11T12:45:47.796Z,56.21
2022-09-11T12:48:17.533Z,55.73
2022-09-11T12:50:52.064Z,55.80
2022-09-11T12:53:23.591Z,55.86
2022-09-11T12:55:59.189Z,55.78
2022-09-11T12:58:31.080Z,55.76
2022-09-11T13:01:04.316Z,55.68
2022-09-11T13:03:33.370Z,56.01
2022-09-11T13:06:03.197Z,55.67
2022-09-11T13:08:33.693Z,55.77
2022-09-11T13:11:36.412Z,55.69
2022-09-11T13:14:04.234Z,55.93
2022-09-11T13:16:34.765Z,55.68
2022-09-11T13:19:11.927Z,55.74
2022-09-11T13:21:40.523Z,55.90
2022-09-11T13:24:23.207Z,55.45
2022-09-11T13:26:55.229Z,55.68
2022-09-11T13:29:24.763Z,55.39
2022-09-11T13:31:52.457Z,55.12
2022-09-11T13:34:21.920Z,55.35
2022-09-11T13:36:54.580Z,55.27
2022-09-11T13:39:24.096Z,55.24
2022-09-11T13:41:59.316Z,55.29
2022-09-11T13:44:35.431Z,55.19
2022-09-11T13:47:06.374Z,55.17
2022-09-11T13:49:37.321Z,55.26
2022-09-11T13:52:05.702Z,55.08
2022-09-11T13:54:34.223Z,54.86
2022-09-11T13:57:13.855Z,55.04
2022-09-11T13:59:46.210Z,55.15
2022-09-11T14:02:28.092Z,54.95
2022-09-11T14:05:04.697Z,55.28
2022-09-11T14:07:33.049Z,55.06
2022-09-11T14:10:04.500Z,55.13
2022-09-11T14:12:32.196Z,54.90
2022-09-11T14:15:02.083Z,54.95
2022-09-11T14:17:29.786Z,54.94
2022-09-11T14:20:01.116Z,54.95
2022-09-11T14:22:31.027Z,54.90
2022-09-11T14:25:04.961Z,54.54
2022-09-11T14:27:37.331Z,54.88
2022-09-11T14:30:27.993Z,54.58
2022-09-11T14:33:20.117Z,54.87
2022-09-11T14:35:50.266Z,54.86
2022-09-11T14:38:19.143Z,55.01
2022-09-11T14:40:51.082Z,54.74
2022-09-11T14:43:21.106Z,54.92
2022-09-11T14:45:51.581Z,54.90
2022-09-11T14:48:19.253Z,54.96
2022-09-11T14:50:47.231Z,54.94
2022-09-11T14:53:26.735Z,54.88
2022-09-11T14:55:54.501Z,54.67
2022-09-11T14:58:22.180Z,54.79
2022-09-11T15:00:49.876Z,54.58
2022-09-11T15:03:18.130Z,54.46
2022-09-11T15:05:46.743Z,54.72
2022-09-11T15:08:14.656Z,54.45
2022-09-11T15:10:46.336Z,54.39
2022-09-11T15:13:14.355Z,54.61
2022-09-11T15:15:42.117Z,54.59
2022-09-11T15:18:10.236Z,54.63
2022-09-11T15:20:37.934Z,54.55
2022-09-11T15:23:06.418Z,54.45
2022-09-11T15:25:34.326Z,54.56
2022-09-11T15:28:03.627Z,54.65
2022-09-11T15:30:31.554Z,54.40
2022-09-11T15:32:59.253Z,54.23
2022-09-11T15:35:32.212Z,54.48
2022-09-11T15:38:00.657Z,54.35
2022-09-11T15:40:29.238Z,54.12
2022-09-11T15:42:57.573Z,54.33
2022-09-11T15:45:26.865Z,54.23
2022-09-11T15:47:54.586Z,54.25
2022-09-11T15:50:28.298Z,54.16
2022-09-11T15:52:55.996Z,53.75
2022-09-11T15:55:23.911Z,54.04
2022-09-11T15:57:51.673Z,54.06
2022-09-11T16:00:19.462Z,53.76
2022-09-11T16:02:48.754Z,53.60
2022-09-11T16:05:16.500Z,53.82
2022-09-11T16:07:44.202Z,53.56
2022-09-11T16:12:30.271Z,53.52
2022-09-11T16:14:57.932Z,53.56
2022-09-11T16:17:31.045Z,53.51
2022-09-11T16:20:00.110Z,53.60
2022-09-11T16:22:31.317Z,53.42
2022-09-11T16:25:00.048Z,53.46
2022-09-11T16:27:28.003Z,53.79
2022-09-11T16:32:43.498Z,53.37
2022-09-11T16:35:14.077Z,53.26
2022-09-11T16:37:41.793Z,53.20
2022-09-11T16:40:10.497Z,53.54
2022-09-11T16:42:38.251Z,53.38
2022-09-11T16:45:06.804Z,53.15
2022-09-11T16:47:34.883Z,53.27
2022-09-11T16:50:10.338Z,52.97
2022-09-11T16:52:39.769Z,52.97
2022-09-11T16:55:09.582Z,52.99
2022-09-11T16:57:37.358Z,53.34
2022-09-11T17:00:05.767Z,53.18
2022-09-11T17:02:33.490Z,53.03
2022-09-11T17:05:01.216Z,52.88
2022-09-11T17:07:28.999Z,52.91
2022-09-11T17:09:58.039Z,53.26
2022-09-11T17:12:25.861Z,53.09
2022-09-11T17:14:54.575Z,52.98
2022-09-11T17:17:23.156Z,52.99
2022-09-11T17:19:51.198Z,52.76
2022-09-11T17:22:18.911Z,53.13
2022-09-11T17:24:46.612Z,52.99
2022-09-11T17:27:15.646Z,53.30
2022-09-11T17:29:44.746Z,53.36
2022-09-11T17:32:27.709Z,53.48
2022-09-11T17:34:55.836Z,53.53
2022-09-11T17:37:23.518Z,53.94
2022-09-11T17:39:51.261Z,53.63
2022-09-11T17:42:20.320Z,54.04
2022-09-11T17:44:48.118Z,53.85
2022-09-11T17:47:15.791Z,53.92
2022-09-11T17:49:43.602Z,54.21
2022-09-11T17:52:11.309Z,54.09
2022-09-11T17:54:39.068Z,54.07
2022-09-11T17:57:06.901Z,54.50
2022-09-11T17:59:36.684Z,54.30
2022-09-11T18:02:04.441Z,54.32
2022-09-11T18:04:32.151Z,54.48
2022-09-11T18:06:59.872Z,54.64
2022-09-11T18:09:27.623Z,54.55
2022-09-11T18:11:55.345Z,54.81
2022-09-11T18:14:23.104Z,54.86
2022-09-11T18:16:52.195Z,54.61
2022-09-11T18:19:21.136Z,54.58
2022-09-11T18:21:50.395Z,54.93
2022-09-11T18:24:19.908Z,54.95
2022-09-11T18:26:49.737Z,54.92
2022-09-11T18:29:19.761Z,54.88
2022-09-11T18:31:49.867Z,55.16
2022-09-11T18:34:20.295Z,55.16
2022-09-11T18:36:47.837Z,54.98
2022-09-11T18:39:16.819Z,54.86
2022-09-11T18:41:45.243Z,55.09
2022-09-11T18:44:18.790Z,55.23
2022-09-11T18:46:47.648Z,55.18
2022-09-11T18:49:15.746Z,55.25
2022-09-11T18:51:44.806Z,54.99
2022-09-11T18:54:15.029Z,55.24
2022-09-11T18:56:42.964Z,55.12
2022-09-11T18:59:10.760Z,54.88
2022-09-11T19:01:40.031Z,55.23
2022-09-11T19:04:08.218Z,55.25
2022-09-11T19:06:38.597Z,55.00
2022-09-11T19:09:08.019Z,55.30
2022-09-11T19:11:36.272Z,54.98
2022-09-11T19:14:04.897Z,54.97
2022-09-11T19:16:32.653Z,55.36
2022-09-11T19:19:00.426Z,55.31
2022-09-11T19:21:28.290Z,55.08
2022-09-11T19:23:57.670Z,55.21
2022-09-11T19:26:28.088Z,55.18
2022-09-11T19:28:55.901Z,55.04
2022-09-11T19:31:25.498Z,55.06
2022-09-11T19:33:54.510Z,55.08
2022-09-11T19:36:23.411Z,55.05
2022-09-11T19:38:52.878Z,54.98
2022-09-11T19:41:21.742Z,54.90
2022-09-11T19:43:51.233Z,54.87
2022-09-11T19:46:19.619Z,55.09
2022-09-11T19:48:48.455Z,54.99
2022-09-11T19:51:16.982Z,55.06
2022-09-11T19:53:44.868Z,55.08
2022-09-11T19:56:12.682Z,54.85
2022-09-11T19:58:40.416Z,55.09
2022-09-11T20:01:10.702Z,55.23
2022-09-11T20:03:38.563Z,55.17
2022-09-11T20:06:06.688Z,55.24
2022-09-11T20:08:34.625Z,55.34
2022-09-11T20:11:02.630Z,55.02
2022-09-11T20:13:30.843Z,54.87
2022-09-11T20:16:03.298Z,54.95
2022-09-11T20:18:32.558Z,55.21
2022-09-11T20:21:02.093Z,55.08
2022-09-11T20:23:29.813Z,55.10
2022-09-11T20:26:16.825Z,54.87
2022-09-11T20:28:45.269Z,55.16
2022-09-11T20:31:14.279Z,55.13
2022-09-11T20:33:43.912Z,54.87
2022-09-11T20:36:11.735Z,55.00
2022-09-11T20:38:39.460Z,55.03
2022-09-11T20:41:07.935Z,54.95
2022-09-11T20:43:35.650Z,55.19
2022-09-11T20:46:03.403Z,54.98
2022-09-11T20:48:31.226Z,54.89
2022-09-11T20:51:03.976Z,54.95
2022-09-11T20:53:31.646Z,55.08
2022-09-11T20:56:03.166Z,55.06
2022-09-11T20:58:30.867Z,54.88
2022-09-11T21:01:00.568Z,54.78
2022-09-11T21:03:28.595Z,54.82
2022-09-11T21:05:56.461Z,54.86
2022-09-11T21:08:26.397Z,54.99
2022-09-11T21:10:54.102Z,55.04
2022-09-11T21:13:21.804Z,55.05
2022-09-11T21:15:49.527Z,55.13
2022-09-11T21:18:17.974Z,54.74
2022-09-11T21:20:53.819Z,55.13
2022-09-11T21:23:21.623Z,55.04
2022-09-11T21:25:52.645Z,54.71
2022-09-11T21:28:20.644Z,54.77
2022-09-11T21:30:48.299Z,54.72
2022-09-11T21:33:16.018Z,54.82
2022-09-11T21:35:43.976Z,54.81
2022-09-11T21:38:11.652Z,54.73
2022-09-11T21:40:39.299Z,54.91
2022-09-11T21:43:08.937Z,54.91
2022-09-11T21:45:36.614Z,54.93
2022-09-11T21:48:05.612Z,55.02
2022-09-11T21:50:33.250Z,54.74
2022-09-11T21:53:01.374Z,54.85
2022-09-11T21:55:29.082Z,54.76
2022-09-11T21:57:56.773Z,54.71
2022-09-11T22:00:25.796Z,54.81
2022-09-11T22:02:53.497Z,54.64
2022-09-11T22:05:21.469Z,54.80
2022-09-11T22:07:49.174Z,54.73
2022-09-11T22:10:16.845Z,54.44
2022-09-11T22:12:44.545Z,54.43
2022-09-11T22:15:12.660Z,54.84
2022-09-11T22:17:41.687Z,54.53
2022-09-11T22:20:09.820Z,54.59
2022-09-11T22:22:38.192Z,54.49
2022-09-11T22:25:07.025Z,54.55
2022-09-11T22:27:34.807Z,54.72
2022-09-11T22:30:02.833Z,54.59
2022-09-11T22:32:31.220Z,54.31
2022-09-11T22:35:00.223Z,54.39
2022-09-11T22:37:27.910Z,54.68
2022-09-11T22:39:55.614Z,54.46
2022-09-11T22:42:23.346Z,54.56
2022-09-11T22:44:50.982Z,54.48
2022-09-11T22:47:18.643Z,54.45
2022-09-11T22:49:46.299Z,54.53
2022-09-11T22:52:15.600Z,54.42
2022-09-11T22:54:44.138Z,54.62
2022-09-11T22:57:11.842Z,54.38
2022-09-11T22:59:39.555Z,54.31
2022-09-11T23:02:07.793Z,54.41
2022-09-11T23:04:35.524Z,54.59
2022-09-11T23:07:17.614Z,54.44
2022-09-11T23:09:46.699Z,54.65
2022-09-11T23:12:14.679Z,54.38
2022-09-11T23:14:42.363Z,54.45
2022-09-11T23:17:10.032Z,54.34
2022-09-11T23:19:37.800Z,54.41
2022-09-11T23:22:05.541Z,54.48
2022-09-11T23:24:33.226Z,54.50
2022-09-11T23:27:02.227Z,54.37
2022-09-11T23:29:29.988Z,54.44
2022-09-11T23:31:57.792Z,54.30
2022-09-11T23:34:25.507Z,54.28
2022-09-11T23:36:53.168Z,54.25
2022-09-11T23:39:20.861Z,53.90
2022-09-11T23:41:48.528Z,54.23
2022-09-11T23:44:18.365Z,54.24
2022-09-11T23:46:46.036Z,54.26
2022-09-11T23:49:14.638Z,54.25
2022-09-11T23:51:42.625Z,54.10
2022-09-11T23:54:10.297Z,53.92
2022-09-11T23:56:37.971Z,53.96
2022-09-11T23:59:06.610Z,54.03
